Time;durP1;ratioP1;P1;durP2;ratioP2;P2;SDS_P1;SDS_P2;PMS_P1;PMS_P2;Temp;Humidity;BMP_temperature;BMP_pressure;BME280_temperature;BME280_humidity;BME280_pressure;Samples;Min_cycle;Max_cycle;Signal;HPM_P1;HPM_P2
2024/03/07 00:00:36;;;;;;;14.07;7.07;;;7.00;90.30;;;;;;5066105;28;20577;-67
2024/03/07 00:03:02;;;;;;;12.48;7.38;;;6.90;90.30;;;;;;5068914;28;20440;-67
2024/03/07 00:05:27;;;;;;;16.13;8.60;;;6.90;90.40;;;;;;5069203;28;20378;-68
2024/03/07 00:07:54;;;;;;;12.80;7.20;;;6.90;90.40;;;;;;5068668;28;20050;-67
2024/03/07 00:10:21;;;;;;;12.50;7.45;;;6.90;90.40;;;;;;5069733;28;20031;-68
2024/03/07 00:12:47;;;;;;;12.80;6.97;;;6.90;90.40;;;;;;5068587;28;20088;-67
2024/03/07 00:15:14;;;;;;;14.63;8.10;;;7.00;90.30;;;;;;5072963;28;20024;-66
2024/03/07 00:17:40;;;;;;;11.57;6.70;;;6.90;90.30;;;;;;5068501;28;20093;-68
2024/03/07 00:20:09;;;;;;;11.55;6.38;;;6.90;90.30;;;;;;5066983;28;20041;-67
2024/03/07 00:22:37;;;;;;;13.95;7.18;;;7.00;90.30;;;;;;5070121;28;20111;-66
2024/03/07 00:25:06;;;;;;;12.32;6.18;;;7.00;90.20;;;;;;5072541;28;20627;-68
2024/03/07 00:27:33;;;;;;;13.70;7.05;;;7.00;90.20;;;;;;5067868;28;20028;-66
2024/03/07 00:29:59;;;;;;;11.27;5.82;;;7.00;90.10;;;;;;5077660;28;20028;-67
2024/03/07 00:32:26;;;;;;;16.80;8.93;;;7.00;90.10;;;;;;5066261;28;20024;-67
2024/03/07 00:34:52;;;;;;;15.98;8.43;;;7.00;90.10;;;;;;5068443;28;20024;-69
2024/03/07 00:37:18;;;;;;;15.18;8.60;;;6.90;90.20;;;;;;5067693;28;20029;-65
2024/03/07 00:39:43;;;;;;;14.68;8.60;;;6.90;90.20;;;;;;5069478;28;20120;-68
2024/03/07 00:42:09;;;;;;;13.80;7.57;;;6.90;90.20;;;;;;5081290;28;20020;-68
2024/03/07 00:44:35;;;;;;;17.35;8.18;;;6.90;90.20;;;;;;5076794;28;20032;-68
2024/03/07 00:47:04;;;;;;;13.40;7.55;;;6.90;90.30;;;;;;5073231;28;20078;-63
2024/03/07 00:49:30;;;;;;;13.35;6.85;;;6.90;90.20;;;;;;5068123;28;20048;-65
2024/03/07 00:51:57;;;;;;;13.20;7.70;;;6.90;90.20;;;;;;5070503;28;20063;-64
2024/03/07 00:54:23;;;;;;;11.25;6.13;;;6.90;90.20;;;;;;5069133;28;20633;-67
2024/03/07 00:56:49;;;;;;;9.63;5.38;;;6.90;90.20;;;;;;5071225;28;20100;-66
2024/03/07 00:59:15;;;;;;;11.23;5.80;;;7.00;90.20;;;;;;5071864;28;20029;-65
2024/03/07 01:01:41;;;;;;;9.90;6.03;;;6.90;90.10;;;;;;5071754;28;20434;-63
2024/03/07 01:04:07;;;;;;;18.52;9.30;;;7.00;90.10;;;;;;5077801;28;20016;-65
2024/03/07 01:06:33;;;;;;;15.23;8.00;;;6.90;90.00;;;;;;5074743;28;20051;-65
2024/03/07 01:08:59;;;;;;;16.77;9.65;;;6.80;90.10;;;;;;5069922;28;20013;-65
2024/03/07 01:11:24;;;;;;;18.45;10.35;;;6.70;90.20;;;;;;5069902;28;20035;-66
2024/03/07 01:13:50;;;;;;;17.10;8.85;;;6.70;90.30;;;;;;5076489;28;20085;-66
2024/03/07 01:16:16;;;;;;;15.25;7.88;;;6.70;90.30;;;;;;5078602;28;20679;-65
2024/03/07 01:18:41;;;;;;;16.98;8.73;;;6.80;90.30;;;;;;5079472;28;20062;-66
2024/03/07 01:21:08;;;;;;;12.43;7.07;;;6.70;90.30;;;;;;5067981;28;20109;-65
2024/03/07 01:23:34;;;;;;;16.88;8.07;;;6.80;90.30;;;;;;5075413;28;20032;-65
2024/03/07 01:25:59;;;;;;;16.20;9.07;;;6.70;90.30;;;;;;5065559;28;20285;-66
2024/03/07 01:28:29;;;;;;;19.67;10.98;;;6.70;90.30;;;;;;5071859;28;20028;-65
2024/03/07 01:30:56;;;;;;;20.13;10.88;;;6.70;90.40;;;;;;5070535;28;20020;-66
2024/03/07 01:33:21;;;;;;;19.52;10.55;;;6.60;90.40;;;;;;5076582;28;20051;-65
2024/03/07 01:35:47;;;;;;;15.82;9.40;;;6.70;90.40;;;;;;5068227;28;20528;-66
2024/03/07 01:38:13;;;;;;;14.82;8.55;;;6.70;90.40;;;;;;5069229;28;20029;-65
2024/03/07 01:40:43;;;;;;;19.40;10.25;;;6.60;90.40;;;;;;5067349;28;20363;-66
2024/03/07 01:43:10;;;;;;;15.63;8.70;;;6.70;90.40;;;;;;5066328;28;20036;-64
2024/03/07 01:45:37;;;;;;;16.15;8.80;;;6.70;90.40;;;;;;5067890;28;20490;-66
2024/03/07 01:48:04;;;;;;;15.32;8.13;;;6.70;90.30;;;;;;5081688;28;20055;-66
2024/03/07 01:50:30;;;;;;;13.77;6.93;;;6.70;90.20;;;;;;5069490;28;20491;-65
2024/03/07 01:52:55;;;;;;;18.95;9.32;;;6.70;90.20;;;;;;5072217;28;20055;-65
2024/03/07 01:55:22;;;;;;;17.13;9.77;;;6.70;90.20;;;;;;5072478;28;20130;-65
2024/03/07 01:57:48;;;;;;;22.33;11.85;;;6.60;90.20;;;;;;5066424;28;20028;-66
2024/03/07 02:00:14;;;;;;;24.90;13.07;;;6.60;90.30;;;;;;5069497;28;20028;-66
2024/03/07 02:02:40;;;;;;;24.90;12.23;;;6.50;90.40;;;;;;5076160;28;20028;-66
2024/03/07 02:05:06;;;;;;;17.38;9.88;;;6.50;90.40;;;;;;5077843;28;20428;-67
2024/03/07 02:07:32;;;;;;;22.92;11.95;;;6.60;90.50;;;;;;5075506;28;20103;-66
2024/03/07 02:10:04;;;;;;;18.52;10.55;;;6.50;90.50;;;;;;5068015;28;20063;-67
2024/03/07 02:12:30;;;;;;;23.33;11.75;;;6.40;90.50;;;;;;5068453;28;20035;-66
2024/03/07 02:14:57;;;;;;;24.65;13.68;;;6.40;90.50;;;;;;5064802;28;20127;-66
2024/03/07 02:17:26;;;;;;;20.88;10.48;;;6.40;90.60;;;;;;5066372;28;20025;-67
2024/03/07 02:19:52;;;;;;;17.60;10.20;;;6.40;90.60;;;;;;5074288;28;20515;-65
2024/03/07 02:22:19;;;;;;;17.67;10.35;;;6.40;90.60;;;;;;5073597;28;20028;-66
2024/03/07 02:24:45;;;;;;;20.63;10.70;;;6.40;90.60;;;;;;5077149;28;20059;-66
2024/03/07 02:27:11;;;;;;;17.15;9.43;;;6.40;90.60;;;;;;5077996;28;20051;-65
2024/03/07 02:29:36;;;;;;;24.23;11.43;;;6.40;90.60;;;;;;5079222;28;20048;-65
2024/03/07 02:32:02;;;;;;;23.25;12.13;;;6.40;90.60;;;;;;5076209;28;20050;-64
2024/03/07 02:34:29;;;;;;;21.92;11.32;;;6.50;90.60;;;;;;5077793;28;20067;-65
2024/03/07 02:36:55;;;;;;;20.20;11.27;;;6.50;90.60;;;;;;5071352;28;20028;-66
2024/03/07 02:39:24;;;;;;;19.90;10.88;;;6.50;90.50;;;;;;5073972;28;20082;-65
2024/03/07 02:41:50;;;;;;;22.17;12.25;;;6.50;90.50;;;;;;5069291;28;20032;-63
2024/03/07 02:44:16;;;;;;;25.05;14.35;;;6.50;90.50;;;;;;5075540;28;20020;-65
2024/03/07 02:46:42;;;;;;;24.90;13.30;;;6.50;90.50;;;;;;5074075;28;20391;-66
2024/03/07 02:49:07;;;;;;;21.10;11.45;;;6.50;90.50;;;;;;5079316;28;20040;-66
2024/03/07 02:51:33;;;;;;;24.40;12.80;;;6.50;90.50;;;;;;5078632;28;20093;-66
2024/03/07 02:53:58;;;;;;;19.67;11.30;;;6.50;90.50;;;;;;5071187;28;20483;-65
2024/03/07 02:56:27;;;;;;;22.30;12.52;;;6.50;90.50;;;;;;5070745;28;20029;-66
2024/03/07 02:58:53;;;;;;;16.95;9.27;;;6.50;90.50;;;;;;5071068;28;20032;-65
2024/03/07 03:01:18;;;;;;;18.50;10.32;;;6.50;90.50;;;;;;5070224;28;20032;-65
2024/03/07 03:03:44;;;;;;;17.35;9.50;;;6.50;90.40;;;;;;5068712;28;20021;-65
2024/03/07 03:06:11;;;;;;;15.18;8.20;;;6.50;90.40;;;;;;5079911;28;20044;-65
2024/03/07 03:08:37;;;;;;;15.07;7.18;;;6.60;90.30;;;;;;5071148;28;20025;-66
2024/03/07 03:11:03;;;;;;;13.52;7.25;;;6.60;90.30;;;;;;5067672;28;20017;-63
2024/03/07 03:13:29;;;;;;;12.40;6.53;;;6.60;90.20;;;;;;5068796;28;20028;-64
2024/03/07 03:15:55;;;;;;;13.30;7.72;;;6.70;90.20;;;;;;5069470;28;20394;-64
2024/03/07 03:18:22;;;;;;;12.40;6.65;;;6.70;90.10;;;;;;5078081;28;20486;-65
2024/03/07 03:20:48;;;;;;;12.45;7.05;;;6.70;90.00;;;;;;5071345;28;20549;-65
2024/03/07 03:23:14;;;;;;;11.07;6.47;;;6.60;90.00;;;;;;5076311;28;20120;-65
2024/03/07 03:25:41;;;;;;;13.15;7.18;;;6.60;89.90;;;;;;5072086;28;20090;-67
2024/03/07 03:28:09;;;;;;;13.35;7.22;;;6.60;89.80;;;;;;5077281;28;20497;-64
2024/03/07 03:30:38;;;;;;;13.45;7.38;;;6.50;89.80;;;;;;5069913;28;20058;-68
2024/03/07 03:33:05;;;;;;;11.75;6.90;;;6.40;89.80;;;;;;5079582;28;20028;-66
2024/03/07 03:35:31;;;;;;;11.32;6.75;;;6.40;90.00;;;;;;5078722;28;20034;-66
2024/03/07 03:37:57;;;;;;;11.63;6.90;;;6.40;90.00;;;;;;5073641;28;20040;-66
2024/03/07 03:40:23;;;;;;;14.38;7.57;;;6.40;90.00;;;;;;5070174;28;20028;-66
2024/03/07 03:42:48;;;;;;;13.45;7.13;;;6.30;89.80;;;;;;5071902;28;20032;-65
2024/03/07 03:45:15;;;;;;;15.75;8.15;;;6.30;90.00;;;;;;5078110;28;20016;-66
2024/03/07 03:47:42;;;;;;;14.30;7.95;;;6.20;90.00;;;;;;5070828;28;20025;-66
2024/03/07 03:50:09;;;;;;;14.75;8.68;;;6.20;90.10;;;;;;5072147;28;20024;-66
2024/03/07 03:52:35;;;;;;;13.55;7.40;;;6.20;90.10;;;;;;5078664;28;20028;-66
2024/03/07 03:55:02;;;;;;;15.63;8.38;;;6.20;90.10;;;;;;5070224;28;20024;-65
2024/03/07 03:57:29;;;;;;;13.40;7.00;;;6.10;90.10;;;;;;5068931;28;20107;-65
2024/03/07 03:59:55;;;;;;;15.00;7.38;;;6.10;90.20;;;;;;5068734;28;20028;-66
2024/03/07 04:02:24;;;;;;;11.15;6.53;;;6.10;90.20;;;;;;5074814;28;20100;-65
2024/03/07 04:04:54;;;;;;;13.70;6.57;;;6.10;90.20;;;;;;5077109;28;20059;-66
2024/03/07 04:07:20;;;;;;;11.65;6.35;;;6.10;90.20;;;;;;5068955;28;20044;-66
2024/03/07 04:09:46;;;;;;;13.13;7.30;;;6.10;90.20;;;;;;5069493;28;20071;-66
2024/03/07 04:12:12;;;;;;;13.75;6.72;;;6.10;90.50;;;;;;5070494;28;20068;-68
2024/03/07 04:14:42;;;;;;;12.95;7.03;;;6.10;90.20;;;;;;5076176;28;20024;-64
2024/03/07 04:17:09;;;;;;;11.60;6.30;;;6.10;90.20;;;;;;5071710;28;20678;-66
2024/03/07 04:19:41;;;;;;;11.07;6.00;;;6.10;90.20;;;;;;5071451;28;20039;-67
2024/03/07 04:22:08;;;;;;;10.95;6.63;;;6.10;90.50;;;;;;5062204;28;20051;-67
2024/03/07 04:24:34;;;;;;;19.27;8.02;;;6.10;90.20;;;;;;5069729;28;20078;-67
2024/03/07 04:27:00;;;;;;;13.32;7.13;;;6.00;90.20;;;;;;5076887;28;20020;-64
2024/03/07 04:29:26;;;;;;;11.23;6.50;;;6.00;90.20;;;;;;5067984;28;20027;-67
2024/03/07 04:31:52;;;;;;;13.88;6.45;;;6.10;90.20;;;;;;5069010;28;20020;-65
2024/03/07 04:34:18;;;;;;;12.13;6.63;;;6.10;90.20;;;;;;5065984;28;20074;-67
2024/03/07 04:36:44;;;;;;;8.45;5.43;;;6.00;90.10;;;;;;5070666;28;20024;-67
2024/03/07 04:39:22;;;;;;;11.10;6.43;;;6.00;90.20;;;;;;5076784;28;20028;-67
2024/03/07 04:41:48;;;;;;;10.93;6.10;;;6.00;90.20;;;;;;5078626;28;20079;-66
2024/03/07 04:44:13;;;;;;;12.75;6.43;;;6.00;90.20;;;;;;5070279;28;20043;-66
2024/03/07 04:46:42;;;;;;;10.90;6.40;;;5.90;90.20;;;;;;5070555;28;20056;-65
2024/03/07 04:49:09;;;;;;;12.00;6.47;;;6.00;90.20;;;;;;5071514;28;20214;-66
2024/03/07 04:51:34;;;;;;;13.50;7.03;;;5.90;90.20;;;;;;5070648;28;20016;-67
2024/03/07 04:54:00;;;;;;;12.73;6.53;;;5.90;90.20;;;;;;5069371;28;20116;-66
2024/03/07 04:56:25;;;;;;;11.45;6.30;;;5.90;90.20;;;;;;5067269;28;20103;-65
2024/03/07 04:58:52;;;;;;;11.55;6.63;;;5.90;90.20;;;;;;5070963;28;20024;-66
2024/03/07 05:01:18;;;;;;;11.38;6.10;;;5.90;90.20;;;;;;5069924;28;20494;-65
2024/03/07 05:03:43;;;;;;;10.48;6.03;;;5.90;90.20;;;;;;5069486;28;20021;-67
2024/03/07 05:06:09;;;;;;;11.98;5.93;;;5.90;90.10;;;;;;5073797;28;20028;-67
2024/03/07 05:08:34;;;;;;;11.27;5.97;;;5.90;90.10;;;;;;5068926;28;20020;-67
2024/03/07 05:11:00;;;;;;;13.10;7.40;;;5.80;90.10;;;;;;5070899;28;20017;-67
2024/03/07 05:13:26;;;;;;;11.70;6.38;;;5.80;90.10;;;;;;5074662;28;20024;-66
2024/03/07 05:15:52;;;;;;;14.73;8.00;;;5.70;90.10;;;;;;5069872;28;20494;-67
2024/03/07 05:18:18;;;;;;;15.75;8.82;;;5.70;90.20;;;;;;5068202;28;20037;-67
2024/03/07 05:20:44;;;;;;;14.35;8.00;;;5.60;90.30;;;;;;5067802;28;20035;-66
2024/03/07 05:23:10;;;;;;;12.73;7.38;;;5.60;90.30;;;;;;5070714;28;20067;-67
2024/03/07 05:25:36;;;;;;;13.23;7.13;;;5.60;90.30;;;;;;5068722;28;20024;-66
2024/03/07 05:28:02;;;;;;;13.57;7.00;;;5.60;90.30;;;;;;5069691;28;20033;-66
2024/03/07 05:30:28;;;;;;;11.38;6.43;;;5.60;90.20;;;;;;5070977;28;20095;-66
2024/03/07 05:32:53;;;;;;;11.63;6.20;;;5.70;90.20;;;;;;5073637;28;20028;-63
2024/03/07 05:35:20;;;;;;;10.02;5.85;;;5.70;90.20;;;;;;5068811;28;20386;-66
2024/03/07 05:37:47;;;;;;;11.32;6.45;;;5.70;90.10;;;;;;5073876;28;20086;-65
2024/03/07 05:40:12;;;;;;;10.82;6.15;;;5.70;90.10;;;;;;5074366;28;20021;-68
2024/03/07 05:42:38;;;;;;;9.85;5.45;;;5.70;90.10;;;;;;5076899;28;20066;-67
2024/03/07 05:45:07;;;;;;;12.05;6.35;;;5.70;90.10;;;;;;5075157;28;20024;-65
2024/03/07 05:47:33;;;;;;;10.07;5.43;;;5.70;90.00;;;;;;5071079;28;20035;-68
2024/03/07 05:49:59;;;;;;;11.57;6.75;;;5.70;90.00;;;;;;5069003;28;20027;-67
2024/03/07 05:52:24;;;;;;;11.40;6.18;;;5.60;89.90;;;;;;5077677;28;20351;-66
2024/03/07 05:54:50;;;;;;;10.45;6.07;;;5.60;89.80;;;;;;5069844;28;20029;-66
2024/03/07 05:57:15;;;;;;;12.40;7.07;;;5.50;89.80;;;;;;5071241;28;20024;-67
2024/03/07 05:59:41;;;;;;;12.20;6.57;;;5.50;89.80;;;;;;5084156;28;20020;-67
2024/03/07 06:02:07;;;;;;;13.20;7.30;;;5.50;89.80;;;;;;5078960;28;20028;-66
2024/03/07 06:04:33;;;;;;;14.05;7.10;;;5.40;89.80;;;;;;5067583;28;20025;-67
2024/03/07 06:06:59;;;;;;;14.18;7.28;;;5.40;89.90;;;;;;5075732;28;20461;-67
2024/03/07 06:09:26;;;;;;;12.27;7.05;;;5.30;90.00;;;;;;5079536;28;20024;-66
2024/03/07 06:11:52;;;;;;;11.98;7.13;;;5.30;90.00;;;;;;5079986;28;20080;-67
2024/03/07 06:14:17;;;;;;;12.00;6.35;;;5.30;90.00;;;;;;5082317;28;20107;-66
2024/03/07 06:16:43;;;;;;;12.07;6.13;;;5.40;90.00;;;;;;5078579;28;20028;-65
2024/03/07 06:19:09;;;;;;;12.02;6.40;;;5.30;90.00;;;;;;5068284;28;20641;-68
2024/03/07 06:21:36;;;;;;;10.82;5.93;;;5.30;90.00;;;;;;5068842;28;20032;-67
2024/03/07 06:24:03;;;;;;;11.18;5.88;;;5.30;90.00;;;;;;5075893;28;20111;-66
2024/03/07 06:29:18;;;;;;;10.75;6.38;;;5.40;89.90;;;;;;5068764;28;20092;-67
2024/03/07 06:31:46;;;;;;;10.98;6.50;;;5.40;89.80;;;;;;5064917;28;20025;-68
2024/03/07 06:34:12;;;;;;;12.88;6.80;;;5.40;89.80;;;;;;5070847;28;20020;-63
2024/03/07 06:36:38;;;;;;;11.60;6.57;;;5.40;89.60;;;;;;5067183;28;20031;-65
2024/03/07 06:39:07;;;;;;;11.30;6.28;;;5.30;89.60;;;;;;5068367;28;20024;-67
2024/03/07 06:41:36;;;;;;;11.82;6.82;;;5.30;89.50;;;;;;5067919;28;20028;-67
2024/03/07 06:44:03;;;;;;;11.90;6.72;;;5.30;89.50;;;;;;5072963;28;20423;-67
2024/03/07 06:46:29;;;;;;;13.68;7.25;;;5.30;89.60;;;;;;5066395;28;20070;-66
2024/03/07 06:48:58;;;;;;;12.43;6.30;;;5.30;89.70;;;;;;5074041;28;20095;-67
2024/03/07 06:51:24;;;;;;;11.98;6.88;;;5.30;89.70;;;;;;5067142;28;20077;-66
2024/03/07 06:53:50;;;;;;;13.10;7.13;;;5.30;89.50;;;;;;5074839;28;20081;-68
2024/03/07 06:56:16;;;;;;;11.15;6.10;;;5.40;89.50;;;;;;5066694;28;20598;-67
2024/03/07 06:58:42;;;;;;;11.77;6.70;;;5.40;89.40;;;;;;5070367;28;20028;-68
2024/03/07 07:01:10;;;;;;;12.07;6.45;;;5.50;89.30;;;;;;5068243;28;20086;-67
2024/03/07 07:03:37;;;;;;;12.38;6.78;;;5.50;89.10;;;;;;5068649;28;20024;-67
2024/03/07 07:06:05;;;;;;;11.90;6.20;;;5.60;89.00;;;;;;5067577;28;20025;-66
2024/03/07 07:08:32;;;;;;;9.15;5.85;;;5.60;88.90;;;;;;5071758;28;20406;-67
2024/03/07 07:10:58;;;;;;;11.48;6.30;;;5.70;88.70;;;;;;5067627;28;20031;-65
2024/03/07 07:13:23;;;;;;;10.25;5.72;;;5.70;88.50;;;;;;5071774;28;20028;-67
2024/03/07 07:15:49;;;;;;;10.63;6.13;;;5.70;88.40;;;;;;5068657;28;20414;-68
2024/03/07 07:18:16;;;;;;;13.93;7.80;;;5.80;88.40;;;;;;5074904;28;20025;-67
2024/03/07 07:20:41;;;;;;;12.05;7.10;;;5.70;88.40;;;;;;5072951;28;20578;-66
2024/03/07 07:23:07;;;;;;;10.27;6.13;;;5.70;88.60;;;;;;5072518;28;20028;-67
2024/03/07 07:25:33;;;;;;;16.17;9.18;;;5.80;88.60;;;;;;5077875;28;20027;-68
2024/03/07 07:27:58;;;;;;;18.23;11.27;;;5.70;88.30;;;;;;5070407;28;20085;-66
2024/03/07 07:30:24;;;;;;;16.70;9.88;;;5.70;88.50;;;;;;5073662;28;20024;-66
2024/03/07 07:32:51;;;;;;;15.88;9.60;;;5.70;88.70;;;;;;5076957;28;20040;-67
2024/03/07 07:35:18;;;;;;;14.40;8.45;;;5.70;88.80;;;;;;5069885;28;20104;-66
2024/03/07 07:37:55;;;;;;;16.05;8.23;;;5.80;88.70;;;;;;5072281;28;20107;-67
2024/03/07 07:40:22;;;;;;;12.60;6.90;;;5.80;88.50;;;;;;5076575;28;20024;-65
2024/03/07 07:42:51;;;;;;;11.27;6.63;;;5.90;88.40;;;;;;5075621;28;20058;-65
2024/03/07 07:45:17;;;;;;;11.80;6.90;;;6.00;88.20;;;;;;5078666;28;20051;-66
2024/03/07 07:47:48;;;;;;;12.65;7.45;;;6.00;88.00;;;;;;5071009;28;20450;-64
2024/03/07 07:50:24;;;;;;;11.85;7.47;;;6.10;87.80;;;;;;5064283;28;20025;-65
2024/03/07 07:52:54;;;;;;;11.13;6.88;;;6.10;87.70;;;;;;5068673;28;20025;-67
2024/03/07 07:55:21;;;;;;;9.18;5.70;;;6.20;87.60;;;;;;5078709;28;20024;-65
2024/03/07 07:57:57;;;;;;;9.57;6.13;;;6.30;87.50;;;;;;5071154;28;20387;-66
2024/03/07 08:00:25;;;;;;;12.07;6.72;;;6.30;87.40;;;;;;5068254;28;20028;-67
2024/03/07 08:03:05;;;;;;;12.27;7.78;;;6.40;87.40;;;;;;5072457;28;20115;-67
2024/03/07 08:05:32;;;;;;;16.42;10.15;;;6.40;87.10;;;;;;5066696;28;20075;-66
2024/03/07 08:08:00;;;;;;;20.10;11.38;;;6.40;86.40;;;;;;5073294;28;20476;-63
2024/03/07 08:10:30;;;;;;;18.23;10.88;;;6.40;86.50;;;;;;5069492;28;21359;-66
2024/03/07 08:12:59;;;;;;;16.17;9.52;;;6.50;86.10;;;;;;5077467;28;20490;-67
2024/03/07 08:15:27;;;;;;;20.35;11.45;;;6.50;86.50;;;;;;5071668;28;20111;-64
2024/03/07 08:17:55;;;;;;;20.58;11.85;;;6.60;85.50;;;;;;5071904;28;20458;-67
2024/03/07 08:20:22;;;;;;;20.25;12.50;;;6.60;85.00;;;;;;5067011;28;20027;-66
2024/03/07 08:22:52;;;;;;;20.77;12.48;;;6.50;84.50;;;;;;5067030;28;20028;-67
2024/03/07 08:25:20;;;;;;;20.00;11.45;;;6.50;84.30;;;;;;5068069;28;20055;-67
2024/03/07 08:27:48;;;;;;;17.95;11.00;;;6.50;84.80;;;;;;5074407;28;20027;-67
2024/03/07 08:30:14;;;;;;;23.63;13.73;;;6.60;84.60;;;;;;5069918;28;20043;-68
2024/03/07 08:32:49;;;;;;;23.35;13.70;;;6.60;83.70;;;;;;5073261;28;20099;-68
2024/03/07 08:35:16;;;;;;;18.13;11.20;;;6.50;83.40;;;;;;5068807;28;20032;-66
2024/03/07 08:37:44;;;;;;;18.38;10.98;;;6.50;83.10;;;;;;5070447;28;20024;-66
2024/03/07 08:40:12;;;;;;;18.02;10.98;;;6.60;83.30;;;;;;5068168;28;20035;-67
2024/03/07 08:42:41;;;;;;;14.35;8.82;;;6.70;83.10;;;;;;5068551;28;20056;-67
2024/03/07 08:45:10;;;;;;;14.88;8.52;;;6.80;83.60;;;;;;5071955;28;20025;-67
2024/03/07 08:47:36;;;;;;;12.27;7.65;;;6.90;83.30;;;;;;5071639;28;20027;-67
2024/03/07 08:50:06;;;;;;;11.23;7.45;;;7.00;83.20;;;;;;5069772;28;20104;-67
2024/03/07 08:52:32;;;;;;;14.07;8.48;;;7.10;83.20;;;;;;5073968;28;20039;-66
2024/03/07 08:54:58;;;;;;;14.60;9.20;;;7.20;82.50;;;;;;5072381;28;20024;-66
2024/03/07 08:57:23;;;;;;;18.55;11.45;;;7.30;82.40;;;;;;5073786;28;20754;-68
2024/03/07 08:59:49;;;;;;;16.02;10.05;;;7.20;81.10;;;;;;5070809;28;20542;-67
2024/03/07 09:02:15;;;;;;;15.40;10.02;;;7.20;81.60;;;;;;5074684;28;20035;-67
2024/03/07 09:04:41;;;;;;;16.70;9.38;;;7.30;81.70;;;;;;5071875;28;20031;-67
2024/03/07 09:07:07;;;;;;;15.15;9.57;;;7.30;81.20;;;;;;5072944;28;20439;-67
2024/03/07 09:09:33;;;;;;;16.27;9.45;;;7.30;81.20;;;;;;5072528;28;20021;-68
2024/03/07 09:12:01;;;;;;;17.98;10.85;;;7.40;80.50;;;;;;5067593;28;20028;-67
2024/03/07 09:14:30;;;;;;;17.02;10.13;;;7.30;80.20;;;;;;5068550;28;20034;-67
2024/03/07 09:16:56;;;;;;;13.95;8.82;;;7.30;80.90;;;;;;5074357;28;20020;-66
2024/03/07 09:19:24;;;;;;;15.10;9.27;;;7.40;81.10;;;;;;5069408;28;21242;-65
2024/03/07 09:21:51;;;;;;;14.38;9.13;;;7.50;80.90;;;;;;5071281;28;20032;-65
2024/03/07 09:24:21;;;;;;;13.75;8.18;;;7.60;80.50;;;;;;5059713;28;20063;-68
2024/03/07 09:26:48;;;;;;;19.52;11.20;;;7.70;80.50;;;;;;5067998;28;20021;-66
2024/03/07 09:29:13;;;;;;;15.82;9.20;;;7.60;80.10;;;;;;5072053;28;20028;-66
2024/03/07 09:31:40;;;;;;;15.35;9.23;;;7.70;80.40;;;;;;5064703;28;20020;-65
2024/03/07 09:34:05;;;;;;;13.80;8.07;;;7.70;80.20;;;;;;5067290;28;20481;-66
2024/03/07 09:36:31;;;;;;;15.23;8.85;;;7.80;80.30;;;;;;5067706;28;20039;-66
2024/03/07 09:38:57;;;;;;;16.95;10.43;;;7.80;79.90;;;;;;5072483;28;20016;-64
2024/03/07 09:41:25;;;;;;;19.70;12.13;;;7.80;79.90;;;;;;5073343;28;20420;-66
2024/03/07 09:43:54;;;;;;;17.00;9.85;;;7.70;78.80;;;;;;5079540;28;20173;-68
2024/03/07 09:46:23;;;;;;;18.63;10.85;;;7.70;79.20;;;;;;5073189;28;20051;-66
2024/03/07 09:48:53;;;;;;;17.90;10.52;;;7.70;79.60;;;;;;5070855;28;20025;-66
2024/03/07 09:51:23;;;;;;;15.90;9.07;;;7.60;79.40;;;;;;5074089;28;20020;-66
2024/03/07 09:53:53;;;;;;;15.10;8.23;;;7.60;79.70;;;;;;5067178;28;20038;-65
2024/03/07 09:56:22;;;;;;;14.13;8.57;;;7.70;79.90;;;;;;5066934;28;20104;-66
2024/03/07 09:58:50;;;;;;;14.48;8.85;;;7.90;79.80;;;;;;5071620;28;20391;-65
2024/03/07 10:01:25;;;;;;;16.42;9.00;;;8.00;78.80;;;;;;5075693;28;20094;-65
2024/03/07 10:03:57;;;;;;;18.33;11.23;;;8.00;79.00;;;;;;5071367;28;20433;-67
2024/03/07 10:06:23;;;;;;;18.42;10.88;;;8.00;78.10;;;;;;5061127;28;20039;-67
2024/03/07 10:08:50;;;;;;;13.80;8.98;;;8.20;78.20;;;;;;5069735;28;20029;-66
2024/03/07 10:11:16;;;;;;;17.45;9.95;;;8.30;78.30;;;;;;5075881;28;20029;-65
2024/03/07 10:13:42;;;;;;;15.85;9.73;;;8.50;77.10;;;;;;5072897;28;20106;-67
2024/03/07 10:16:10;;;;;;;19.38;10.25;;;8.60;76.10;;;;;;5067805;28;20032;-67
2024/03/07 10:18:42;;;;;;;15.10;9.00;;;8.70;76.60;;;;;;5066657;28;20024;-66
2024/03/07 10:21:08;;;;;;;18.40;10.57;;;8.90;76.00;;;;;;5075497;28;20039;-67
2024/03/07 10:23:34;;;;;;;19.83;10.80;;;8.80;74.20;;;;;;5069200;28;20021;-67
2024/03/07 10:26:00;;;;;;;19.67;11.43;;;8.80;74.80;;;;;;5063548;28;20107;-67
2024/03/07 10:28:27;;;;;;;17.30;10.45;;;8.90;74.30;;;;;;5065332;28;20013;-67
2024/03/07 10:30:53;;;;;;;19.33;11.32;;;8.80;74.70;;;;;;5064941;28;20013;-65
2024/03/07 10:33:19;;;;;;;16.38;10.23;;;8.70;73.40;;;;;;5067337;28;20115;-67
2024/03/07 10:35:51;;;;;;;15.50;9.35;;;8.80;74.60;;;;;;5070189;28;20017;-67
2024/03/07 10:38:18;;;;;;;18.73;10.48;;;8.80;74.50;;;;;;5064114;28;20035;-68
2024/03/07 10:40:47;;;;;;;17.98;10.93;;;8.80;74.20;;;;;;5078855;28;20024;-67
2024/03/07 10:43:17;;;;;;;19.85;10.95;;;8.70;73.20;;;;;;5076143;28;20502;-68
2024/03/07 10:45:46;;;;;;;21.83;12.10;;;8.80;74.30;;;;;;5074706;28;20067;-68
2024/03/07 10:48:13;;;;;;;19.58;11.75;;;8.70;73.30;;;;;;5070192;28;20020;-67
2024/03/07 10:51:09;;;;;;;20.27;11.25;;;8.70;73.20;;;;;;5067005;28;20122;-68
2024/03/07 10:53:42;;;;;;;20.35;11.25;;;8.60;72.80;;;;;;5072874;28;20666;-68
2024/03/07 10:56:11;;;;;;;18.90;10.35;;;8.60;73.40;;;;;;5076383;28;20024;-67
2024/03/07 10:58:53;;;;;;;18.65;10.82;;;8.80;73.40;;;;;;5070571;28;20020;-67
2024/03/07 11:01:19;;;;;;;;;;;8.80;73.20;;;;;;5074755;28;20110;-67
2024/03/07 11:03:46;;;;;;;24.55;13.00;;;8.80;72.60;;;;;;5072474;28;19912;-67
2024/03/07 11:06:14;;;;;;;21.40;11.70;;;8.70;71.50;;;;;;5072381;28;20052;-67
2024/03/07 11:08:40;;;;;;;18.50;10.88;;;8.70;72.10;;;;;;5075504;28;20020;-68
2024/03/07 11:11:06;;;;;;;20.83;10.02;;;8.60;72.40;;;;;;5074094;28;20013;-68
2024/03/07 11:13:34;;;;;;;17.65;10.57;;;8.70;72.80;;;;;;5078159;28;20093;-68
2024/03/07 11:16:00;;;;;;;17.20;9.15;;;8.80;72.90;;;;;;5073022;28;20123;-67
2024/03/07 11:18:29;;;;;;;13.95;8.50;;;8.80;72.90;;;;;;5078978;28;20020;-68
2024/03/07 11:20:57;;;;;;;19.70;11.48;;;8.90;73.10;;;;;;5074162;28;20067;-67
2024/03/07 11:23:26;;;;;;;17.73;10.27;;;8.90;72.40;;;;;;5076643;28;20062;-67
2024/03/07 11:26:07;;;;;;;18.20;10.20;;;8.90;72.50;;;;;;5073136;28;20074;-66
2024/03/07 11:28:34;;;;;;;17.85;9.80;;;8.90;72.20;;;;;;5078233;28;20424;-67
2024/03/07 11:31:09;;;;;;;16.38;9.15;;;8.80;72.10;;;;;;5074394;28;20036;-67
2024/03/07 11:33:39;;;;;;;14.13;7.70;;;8.90;72.90;;;;;;5066096;28;20032;-67
2024/03/07 11:36:06;;;;;;;13.25;7.78;;;9.00;73.10;;;;;;5071189;28;20016;-67
2024/03/07 11:38:34;;;;;;;13.73;7.78;;;9.20;72.70;;;;;;5067725;28;20109;-68
2024/03/07 11:41:02;;;;;;;15.65;9.05;;;9.20;72.70;;;;;;5072883;28;20027;-66
2024/03/07 11:43:28;;;;;;;14.65;8.05;;;9.20;72.30;;;;;;5072598;28;20024;-67
2024/03/07 11:45:57;;;;;;;15.52;9.18;;;9.30;72.90;;;;;;5075815;28;20035;-67
2024/03/07 11:48:23;;;;;;;19.10;10.60;;;9.40;71.70;;;;;;5071014;28;20035;-66
2024/03/07 11:50:49;;;;;;;18.88;10.32;;;9.30;71.60;;;;;;5067576;28;20463;-68
2024/03/07 11:53:15;;;;;;;19.00;10.82;;;9.20;71.50;;;;;;5079012;28;20040;-67
2024/03/07 11:55:43;;;;;;;17.90;10.25;;;9.20;71.60;;;;;;5070037;28;20060;-65
2024/03/07 11:58:16;;;;;;;17.23;10.18;;;9.10;71.70;;;;;;5073791;28;20028;-67
2024/03/07 12:00:44;;;;;;;14.13;8.07;;;9.20;72.20;;;;;;5068173;28;20483;-67
2024/03/07 12:03:14;;;;;;;15.57;9.32;;;9.40;72.30;;;;;;5066537;28;20039;-67
2024/03/07 12:05:44;;;;;;;15.38;8.90;;;9.50;71.80;;;;;;5065538;28;20394;-66
2024/03/07 12:08:12;;;;;;;15.20;8.93;;;9.60;71.70;;;;;;5077572;28;20020;-66
2024/03/07 12:10:43;;;;;;;16.58;9.20;;;9.70;71.60;;;;;;5071417;28;20182;-67
2024/03/07 12:13:15;;;;;;;14.65;8.68;;;9.80;71.80;;;;;;5075511;28;20454;-67
2024/03/07 12:15:42;;;;;;;18.48;10.65;;;9.80;71.60;;;;;;5066736;28;20032;-67
2024/03/07 12:18:14;;;;;;;16.83;9.88;;;9.80;70.80;;;;;;5075451;28;20430;-67
2024/03/07 12:20:41;;;;;;;13.38;8.70;;;9.60;70.70;;;;;;5078057;28;20108;-65
2024/03/07 12:23:08;;;;;;;16.08;9.65;;;9.60;71.50;;;;;;5072192;28;20022;-65
2024/03/07 12:25:37;;;;;;;14.48;8.07;;;9.60;71.30;;;;;;5075436;28;20100;-67
2024/03/07 12:28:19;;;;;;;15.00;8.77;;;9.80;71.80;;;;;;5074751;28;20032;-67
2024/03/07 12:30:53;;;;;;;;;;;10.00;71.20;;;;;;5060124;28;20429;-64
2024/03/07 12:33:22;;;;;;;14.13;8.95;;;10.10;71.20;;;;;;5065842;28;19995;-66
2024/03/07 12:35:49;;;;;;;15.48;9.43;;;10.10;70.40;;;;;;5073560;28;20070;-65
2024/03/07 12:38:17;;;;;;;14.50;8.70;;;9.90;70.70;;;;;;5076270;28;20024;-67
2024/03/07 12:40:43;;;;;;;14.73;8.38;;;10.10;70.90;;;;;;5072142;28;20494;-66
2024/03/07 12:43:16;;;;;;;11.88;7.25;;;10.20;71.20;;;;;;5065628;28;20093;-65
2024/03/07 12:45:52;;;;;;;15.13;9.32;;;10.40;71.60;;;;;;5067421;28;20078;-66
2024/03/07 12:48:21;;;;;;;18.05;10.35;;;10.40;70.40;;;;;;5063017;28;20031;-66